Time;durP1;ratioP1;P1;durP2;ratioP2;P2;SDS_P1;SDS_P2;PMS_P1;PMS_P2;Temp;Humidity;BMP_temperature;BMP_pressure;BME280_temperature;BME280_humidity;BME280_pressure;Samples;Min_cycle;Max_cycle;Signal;HPM_P1;HPM_P2
2022/01/09 00:00:01;;;;;;;34.40;4.93;;;;;;;5.80;100.00;98984.94;5074282;28;20016;-74
2022/01/09 00:02:26;;;;;;;35.25;5.43;;;;;;;5.81;100.00;99009.44;5073927;28;20120;-75
2022/01/09 00:04:51;;;;;;;30.45;5.32;;;;;;;5.84;100.00;99004.00;5074416;28;20099;-74
2022/01/09 00:07:17;;;;;;;30.48;5.13;;;;;;;5.84;100.00;99020.59;5074334;28;20020;-75
2022/01/09 00:09:44;;;;;;;34.60;4.90;;;;;;;5.85;100.00;99029.34;5073855;28;20108;-75
2022/01/09 00:12:11;;;;;;;31.48;5.13;;;;;;;5.81;100.00;99015.53;5074392;28;20028;-74
2022/01/09 00:14:36;;;;;;;26.20;4.70;;;;;;;5.83;100.00;99026.81;5073624;28;20051;-76
2022/01/09 00:17:02;;;;;;;28.92;5.35;;;;;;;5.82;100.00;99038.25;5074350;28;20480;-75
2022/01/09 00:19:28;;;;;;;38.80;5.68;;;;;;;5.85;100.00;99035.44;5073681;28;20384;-75
2022/01/09 00:21:53;;;;;;;28.00;5.20;;;;;;;5.85;100.00;99051.19;5073882;28;20028;-75
2022/01/09 00:24:18;;;;;;;37.70;5.50;;;;;;;5.85;100.00;99060.88;5073455;28;20031;-76
2022/01/09 00:26:44;;;;;;;32.17;5.53;;;;;;;5.86;100.00;99057.31;5073920;28;20020;-76
2022/01/09 00:29:10;;;;;;;31.20;4.78;;;;;;;5.88;100.00;99069.44;5073464;28;20032;-76
2022/01/09 00:31:38;;;;;;;33.55;5.25;;;;;;;5.89;100.00;99072.91;5073638;28;20491;-76
2022/01/09 00:34:03;;;;;;;33.05;4.78;;;;;;;5.91;100.00;99081.56;5073676;28;20052;-76
2022/01/09 00:36:30;;;;;;;23.80;4.22;;;;;;;5.87;100.00;99088.75;5073361;28;20448;-76
2022/01/09 00:38:56;;;;;;;27.35;4.22;;;;;;;5.85;100.00;99098.47;5073240;28;21590;-75
2022/01/09 00:41:21;;;;;;;31.58;4.38;;;;;;;5.90;100.00;99085.09;5073609;28;20106;-76
2022/01/09 00:43:46;;;;;;;29.10;4.00;;;;;;;5.91;100.00;99082.38;5073607;28;20104;-76
2022/01/09 00:46:12;;;;;;;21.70;4.25;;;;;;;5.90;100.00;99099.06;5072560;28;20056;-76
2022/01/09 00:48:37;;;;;;;30.65;4.70;;;;;;;5.89;100.00;99110.50;5073082;28;20488;-75
2022/01/09 00:51:02;;;;;;;25.67;5.15;;;;;;;5.93;100.00;99120.88;5072909;28;20039;-76
2022/01/09 00:53:28;;;;;;;25.65;4.63;;;;;;;5.90;100.00;99117.47;5073301;28;20032;-76
2022/01/09 00:55:53;;;;;;;24.95;4.80;;;;;;;5.89;100.00;99110.50;5072842;28;20036;-75
2022/01/09 00:58:18;;;;;;;24.25;4.43;;;;;;;5.89;100.00;99114.94;5073413;28;20028;-76
2022/01/09 01:00:44;;;;;;;30.88;4.53;;;;;;;5.88;100.00;99114.09;5071297;28;20032;-76
2022/01/09 01:03:09;;;;;;;34.45;6.15;;;;;;;5.91;100.00;99134.09;5073080;28;20075;-76
2022/01/09 01:05:35;;;;;;;23.77;4.80;;;;;;;5.88;100.00;99137.72;5073126;28;20032;-78
2022/01/09 01:08:00;;;;;;;27.33;5.35;;;;;;;5.87;100.00;99130.78;5072963;28;20025;-78
2022/01/09 01:10:25;;;;;;;29.98;5.43;;;;;;;5.87;100.00;99149.16;5072600;28;20028;-78
2022/01/09 01:12:51;;;;;;;33.25;4.70;;;;;;;5.85;100.00;99137.88;5072776;28;20108;-78
2022/01/09 01:15:16;;;;;;;28.42;4.55;;;;;;;5.87;99.21;99162.31;5072815;28;20032;-78
2022/01/09 01:17:42;;;;;;;24.90;4.05;;;;;;;5.87;98.72;99171.94;5072100;28;20030;-77
2022/01/09 01:20:08;;;;;;;19.42;3.80;;;;;;;5.85;99.01;99172.03;5072753;28;20082;-77
2022/01/09 01:22:34;;;;;;;22.85;4.00;;;;;;;5.85;99.61;99166.78;5072420;28;20035;-78
2022/01/09 01:25:00;;;;;;;20.85;3.30;;;;;;;5.85;99.34;99171.19;5072725;28;20033;-78
2022/01/09 01:27:26;;;;;;;25.92;3.90;;;;;;;5.84;98.57;99180.00;5072759;28;20074;-77
2022/01/09 01:29:52;;;;;;;28.13;4.15;;;;;;;5.82;98.88;99197.59;5072468;28;20033;-78
2022/01/09 01:32:17;;;;;;;28.73;3.88;;;;;;;5.79;98.20;99198.59;5072218;28;20024;-78
2022/01/09 01:34:42;;;;;;;26.02;3.60;;;;;;;5.81;98.43;99209.06;5072581;28;20028;-74
2022/01/09 01:37:08;;;;;;;27.45;3.65;;;;;;;5.80;97.95;99212.59;5072698;28;20092;-79
2022/01/09 01:39:33;;;;;;;24.98;3.65;;;;;;;5.81;97.54;99211.69;5072046;28;20112;-78
2022/01/09 01:41:58;;;;;;;22.20;4.10;;;;;;;5.81;98.25;99209.06;5070592;28;20040;-78
2022/01/09 01:44:24;;;;;;;29.25;3.42;;;;;;;5.82;98.48;99214.22;5072634;28;20115;-78
2022/01/09 01:46:49;;;;;;;28.25;4.53;;;;;;;5.82;97.75;99227.38;5072518;28;20099;-77
2022/01/09 01:49:15;;;;;;;25.05;3.78;;;;;;;5.84;97.57;99233.38;5071965;28;20468;-77
2022/01/09 01:51:43;;;;;;;27.30;4.10;;;;;;;5.82;98.23;99245.75;5072406;28;20040;-77
2022/01/09 01:54:13;;;;;;;19.65;3.83;;;;;;;5.81;98.46;99248.47;5072089;28;20099;-76
2022/01/09 01:56:39;;;;;;;28.65;4.47;;;;;;;5.83;98.90;99247.47;5072203;28;20111;-76
2022/01/09 01:59:05;;;;;;;18.88;4.22;;;;;;;5.82;98.29;99250.13;5071695;28;20078;-77
2022/01/09 02:01:31;;;;;;;20.42;3.38;;;;;;;5.79;97.79;99247.69;5052340;28;20041;-77
2022/01/09 02:03:56;;;;;;;21.20;3.58;;;;;;;5.80;96.69;99257.28;5062772;28;20028;-78
2022/01/09 02:06:22;;;;;;;19.95;3.17;;;;;;;5.77;96.80;99267.91;5072518;28;20112;-78
2022/01/09 02:08:47;;;;;;;22.05;3.35;;;;;;;5.74;96.54;99279.41;5071654;28;20032;-77
2022/01/09 02:11:13;;;;;;;20.88;3.80;;;;;;;5.73;97.42;99273.34;5071172;28;20033;-77
2022/01/09 02:13:40;;;;;;;21.15;2.92;;;;;;;5.68;96.58;99275.34;5071750;28;20032;-78
2022/01/09 02:16:16;;;;;;;23.13;3.17;;;;;;;5.74;96.83;99282.03;5072277;28;20074;-75
2022/01/09 02:18:42;;;;;;;30.38;3.90;;;;;;;5.72;96.50;99279.50;5071873;28;20029;-76
2022/01/09 02:21:10;;;;;;;18.60;3.40;;;;;;;5.72;96.03;99287.38;5069043;28;20059;-77
2022/01/09 02:23:37;;;;;;;16.63;2.80;;;;;;;5.70;94.70;99301.53;5071583;28;20058;-76
2022/01/09 02:26:02;;;;;;;15.82;2.90;;;;;;;5.62;94.82;99309.78;5072141;28;20044;-77
2022/01/09 02:28:29;;;;;;;13.10;2.65;;;;;;;5.61;94.37;99307.22;5072174;28;20373;-75
2022/01/09 02:30:55;;;;;;;23.27;3.05;;;;;;;5.58;94.89;99313.47;5071963;28;20388;-77
2022/01/09 02:33:20;;;;;;;12.07;2.83;;;;;;;5.56;94.97;99315.31;5071890;28;20028;-76
2022/01/09 02:35:51;;;;;;;23.63;3.38;;;;;;;5.56;95.44;99315.31;5071703;28;20449;-77
2022/01/09 02:38:17;;;;;;;16.65;3.10;;;;;;;5.58;94.35;99334.50;5072116;28;20027;-77
2022/01/09 02:40:43;;;;;;;16.58;2.67;;;;;;;5.61;94.74;99325.63;5071781;28;20477;-77
2022/01/09 02:43:08;;;;;;;17.38;2.80;;;;;;;5.63;94.55;99334.28;5071896;28;20094;-79
2022/01/09 02:45:33;;;;;;;19.80;3.40;;;;;;;5.60;94.30;99347.53;5071828;28;20037;-78
2022/01/09 02:48:02;;;;;;;15.90;2.78;;;;;;;5.62;93.55;99341.28;5072101;28;20021;-76
2022/01/09 02:50:38;;;;;;;19.67;2.90;;;;;;;5.63;93.56;99352.66;5071893;28;20025;-78
2022/01/09 02:53:14;;;;;;;18.98;3.33;;;;;;;5.66;94.33;99365.63;5072024;28;20025;-76
2022/01/09 02:55:40;;;;;;;13.25;2.33;;;;;;;5.64;94.46;99376.22;5070661;28;20024;-78
2022/01/09 02:58:06;;;;;;;18.35;2.80;;;;;;;5.60;94.68;99371.19;5072115;28;20074;-79
2022/01/09 03:00:34;;;;;;;17.95;3.28;;;;;;;5.52;95.21;99387.28;5072159;28;20020;-76
2022/01/09 03:03:00;;;;;;;18.58;3.38;;;;;;;5.49;94.85;99384.81;5071136;28;20056;-77
2022/01/09 03:05:27;;;;;;;15.15;3.17;;;;;;;5.42;94.32;99384.25;5071744;28;20046;-79
2022/01/09 03:07:53;;;;;;;17.63;3.65;;;;;;;5.37;94.71;99396.72;5070414;28;20029;-77
2022/01/09 03:10:20;;;;;;;16.05;2.60;;;;;;;5.38;95.09;99398.44;5072090;28;20357;-78
2022/01/09 03:12:46;;;;;;;20.90;3.42;;;;;;;5.34;93.69;99407.38;5075522;28;20073;-79
2022/01/09 03:15:13;;;;;;;14.82;2.42;;;;;;;5.30;94.50;99411.09;5075017;28;20035;-78
2022/01/09 03:17:39;;;;;;;18.45;3.20;;;;;;;5.26;94.34;99420.88;5075255;28;20032;-76
2022/01/09 03:20:06;;;;;;;14.55;2.65;;;;;;;5.29;93.51;99418.09;5074899;28;20036;-77
2022/01/09 03:22:32;;;;;;;14.75;2.60;;;;;;;5.27;93.64;99427.81;5074384;28;20468;-77
2022/01/09 03:24:57;;;;;;;14.20;3.00;;;;;;;5.27;94.47;99432.19;5074580;28;20039;-75
2022/01/09 03:27:22;;;;;;;13.18;2.95;;;;;;;5.30;93.31;99442.59;5073901;28;20427;-76
2022/01/09 03:29:48;;;;;;;16.35;2.63;;;;;;;5.32;92.71;99441.59;5075076;28;20050;-76
2022/01/09 03:32:13;;;;;;;15.77;3.08;;;;;;;5.28;92.10;99439.16;5074727;28;20058;-77
2022/01/09 03:34:39;;;;;;;15.93;2.50;;;;;;;5.25;92.80;99448.03;5074546;28;20028;-75
2022/01/09 03:37:05;;;;;;;17.80;3.55;;;;;;;5.22;92.72;99462.13;5074566;28;20064;-77
2022/01/09 03:39:30;;;;;;;16.02;2.80;;;;;;;5.20;91.87;99447.38;5074596;28;20111;-75
2022/01/09 03:41:58;;;;;;;19.33;2.60;;;;;;;5.20;91.81;99450.84;5074305;28;20128;-75
2022/01/09 03:44:24;;;;;;;17.92;2.85;;;;;;;5.21;92.19;99467.47;5074704;28;20056;-75
2022/01/09 03:46:49;;;;;;;14.85;2.97;;;;;;;5.21;92.41;99472.72;5074139;28;20048;-80
2022/01/09 03:49:15;;;;;;;15.50;2.95;;;;;;;5.21;93.37;99478.81;5074735;28;20100;-78
2022/01/09 03:51:43;;;;;;;17.83;3.00;;;;;;;5.23;93.18;99481.34;5075250;28;20123;-75
2022/01/09 03:54:09;;;;;;;14.80;2.55;;;;;;;5.19;93.68;99470.16;5074577;28;20035;-75
2022/01/09 03:56:34;;;;;;;16.48;2.75;;;;;;;5.18;92.67;99478.94;5072592;28;20028;-75
2022/01/09 03:59:00;;;;;;;19.92;3.42;;;;;;;5.15;93.40;99476.44;5074753;28;20096;-75
2022/01/09 04:01:26;;;;;;;12.13;2.45;;;;;;;5.17;92.40;99477.25;5074622;28;20537;-78
2022/01/09 04:03:52;;;;;;;12.20;2.13;;;;;;;5.15;92.19;99481.69;5075800;28;20149;-75
2022/01/09 04:06:18;;;;;;;14.05;2.67;;;;;;;5.11;92.38;99485.38;5074036;28;20039;-77
2022/01/09 04:08:43;;;;;;;9.68;2.40;;;;;;;5.06;91.51;99492.59;5074029;28;20032;-77
2022/01/09 04:11:10;;;;;;;10.18;2.55;;;;;;;5.02;92.57;99486.63;5074073;28;20029;-79
2022/01/09 04:13:37;;;;;;;14.25;2.85;;;;;;;5.03;91.60;99492.75;5075233;28;20047;-78
2022/01/09 04:16:04;;;;;;;14.63;2.72;;;;;;;5.04;92.05;99503.16;5074171;28;20029;-75
2022/01/09 04:18:31;;;;;;;18.63;3.75;;;;;;;4.91;92.72;99504.59;5074124;28;20032;-79
2022/01/09 04:20:57;;;;;;;12.98;2.85;;;;;;;4.93;92.60;99515.91;5071923;28;20071;-77
2022/01/09 04:23:22;;;;;;;16.05;2.40;;;;;;;4.92;92.15;99511.56;5074873;28;20060;-78
2022/01/09 04:25:48;;;;;;;17.73;2.58;;;;;;;4.93;92.85;99510.66;5073777;28;20021;-75
2022/01/09 04:28:14;;;;;;;14.02;2.45;;;;;;;4.97;91.83;99509.59;5073611;28;20028;-74
2022/01/09 04:30:40;;;;;;;10.77;2.60;;;;;;;4.99;90.41;99523.50;5074074;28;20029;-78
2022/01/09 04:33:06;;;;;;;15.98;2.47;;;;;;;4.96;90.44;99541.97;5073861;28;20028;-78
2022/01/09 04:35:31;;;;;;;11.45;2.63;;;;;;;4.92;90.23;99545.66;5074613;28;20491;-75
2022/01/09 04:37:57;;;;;;;14.63;2.60;;;;;;;4.89;90.25;99538.78;5073564;28;20029;-78
2022/01/09 04:40:22;;;;;;;11.05;2.50;;;;;;;4.88;89.48;99551.97;5059474;28;20400;-75
2022/01/09 04:42:58;;;;;;;13.10;2.45;;;;;;;4.84;89.96;99555.63;5053692;28;20029;-76
2022/01/09 04:45:25;;;;;;;16.05;2.20;;;;;;;4.83;89.84;99551.31;5067481;28;20035;-79
2022/01/09 04:47:52;;;;;;;14.50;2.65;;;;;;;4.80;90.15;99560.16;5073597;28;20085;-76
2022/01/09 04:50:24;;;;;;;11.77;2.13;;;;;;;4.83;91.12;99567.03;5073145;28;20392;-79
2022/01/09 04:52:53;;;;;;;8.05;2.65;;;;;;;4.85;92.12;99562.59;5073182;28;20025;-78
2022/01/09 04:55:19;;;;;;;12.30;2.90;;;;;;;4.87;91.56;99584.34;5074237;28;20032;-75
2022/01/09 04:57:45;;;;;;;9.95;2.30;;;;;;;4.92;92.71;99578.00;5073556;28;20028;-75
2022/01/09 05:00:11;;;;;;;12.07;2.40;;;;;;;4.92;92.88;99587.63;5073104;28;20024;-79
2022/01/09 05:02:36;;;;;;;11.88;2.38;;;;;;;4.99;92.17;99590.88;5073022;28;20388;-77
2022/01/09 05:05:03;;;;;;;21.40;2.97;;;;;;;5.02;91.79;99593.38;5074203;28;20100;-75
2022/01/09 05:07:28;;;;;;;15.05;2.60;;;;;;;5.03;91.81;99610.81;5052975;28;20346;-78
2022/01/09 05:09:54;;;;;;;9.50;2.20;;;;;;;5.05;91.43;99603.72;5065447;28;20111;-75
2022/01/09 05:12:19;;;;;;;11.13;2.55;;;;;;;5.04;91.40;99599.41;5072656;28;20089;-77
2022/01/09 05:14:45;;;;;;;9.65;2.42;;;;;;;5.01;91.31;99620.50;5071536;28;20033;-75
2022/01/09 05:17:10;;;;;;;9.88;2.90;;;;;;;5.01;90.93;99624.00;5073975;28;20491;-79
2022/01/09 05:19:36;;;;;;;12.98;2.40;;;;;;;5.04;91.26;99623.88;5072989;28;20032;-74
2022/01/09 05:22:02;;;;;;;11.25;2.65;;;;;;;5.05;91.03;99630.81;5072653;28;20457;-75
2022/01/09 05:24:28;;;;;;;14.23;3.05;;;;;;;5.09;90.15;99642.91;5072646;28;20028;-74
2022/01/09 05:26:54;;;;;;;10.88;2.65;;;;;;;5.09;89.70;99631.56;5073946;28;20040;-75
2022/01/09 05:29:20;;;;;;;14.20;2.40;;;;;;;5.11;90.07;99637.56;5072841;28;20016;-74
2022/01/09 05:31:46;;;;;;;13.77;2.75;;;;;;;5.10;90.29;99638.50;5072536;28;20499;-74
2022/01/09 05:34:11;;;;;;;12.75;2.55;;;;;;;5.10;90.44;99646.38;5071930;28;20037;-74
2022/01/09 05:36:36;;;;;;;13.45;2.30;;;;;;;5.13;89.56;99635.75;5073917;28;20069;-78
2022/01/09 05:39:03;;;;;;;18.75;2.63;;;;;;;5.13;90.10;99648.88;5072394;28;20476;-77
2022/01/09 05:41:29;;;;;;;14.25;2.60;;;;;;;5.09;90.49;99657.81;5061773;28;20114;-74
2022/01/09 05:43:54;;;;;;;14.50;2.58;;;;;;;5.12;90.22;99667.31;5052385;28;20472;-77
2022/01/09 05:46:20;;;;;;;11.85;2.22;;;;;;;5.12;90.44;99662.91;5052575;28;20100;-79
2022/01/09 05:48:45;;;;;;;10.35;2.47;;;;;;;5.11;90.96;99673.47;5072335;28;20090;-78
2022/01/09 05:51:10;;;;;;;17.77;2.58;;;;;;;5.09;90.50;99660.44;5066485;28;20033;-80
2022/01/09 05:53:35;;;;;;;14.13;2.30;;;;;;;5.11;90.24;99658.56;5057302;28;20070;-79
2022/01/09 05:56:01;;;;;;;8.27;2.22;;;;;;;5.13;89.90;99664.63;5072226;28;20025;-74
2022/01/09 05:58:26;;;;;;;15.32;2.70;;;;;;;5.16;91.44;99679.38;5084007;28;20057;-74
2022/01/09 06:00:51;;;;;;;8.90;2.17;;;;;;;5.08;90.93;99675.28;5092330;28;20464;-74
2022/01/09 06:03:17;;;;;;;14.48;2.38;;;;;;;5.01;90.13;99675.59;5092904;28;20368;-74
2022/01/09 06:05:42;;;;;;;15.93;3.17;;;;;;;4.96;90.88;99678.41;5074953;28;20146;-75
2022/01/09 06:08:07;;;;;;;10.63;2.60;;;;;;;4.95;90.70;99683.72;5073270;28;20103;-79
2022/01/09 06:10:33;;;;;;;13.60;2.67;;;;;;;4.93;90.53;99691.66;5072244;28;20406;-79
2022/01/09 06:12:58;;;;;;;11.82;2.97;;;;;;;4.91;90.96;99691.72;5072207;28;20148;-77
2022/01/09 06:15:23;;;;;;;12.70;2.50;;;;;;;4.89;90.80;99692.72;5071880;28;20464;-75
2022/01/09 06:17:49;;;;;;;9.07;2.65;;;;;;;4.82;91.33;99706.97;5072353;28;20464;-79
2022/01/09 06:20:15;;;;;;;9.73;2.42;;;;;;;4.84;90.95;99692.88;5073399;28;20024;-74
2022/01/09 06:22:41;;;;;;;11.63;2.53;;;;;;;4.83;90.99;99700.81;5072375;28;20035;-78
2022/01/09 06:25:07;;;;;;;8.80;2.20;;;;;;;4.80;90.78;99717.53;5071661;28;20032;-74
2022/01/09 06:27:33;;;;;;;12.05;2.72;;;;;;;4.74;92.24;99712.50;5071913;28;20017;-77
2022/01/09 06:29:58;;;;;;;7.75;2.53;;;;;;;4.76;91.25;99716.78;5073687;28;20056;-78
2022/01/09 06:32:24;;;;;;;10.90;2.70;;;;;;;4.78;91.54;99721.97;5072222;28;20100;-78
2022/01/09 06:34:49;;;;;;;13.77;2.30;;;;;;;4.81;90.47;99726.25;5071993;28;20025;-79
2022/01/09 06:37:15;;;;;;;12.85;2.17;;;;;;;4.80;91.50;99743.75;5071785;28;20086;-78
2022/01/09 06:39:41;;;;;;;12.40;2.38;;;;;;;4.81;90.64;99729.72;5072999;28;20025;-76
2022/01/09 06:42:06;;;;;;;10.93;2.13;;;;;;;4.84;88.91;99741.88;5071630;28;20031;-78
2022/01/09 06:44:32;;;;;;;10.10;2.30;;;;;;;4.86;89.32;99753.16;5073531;28;20100;-76
2022/01/09 06:46:57;;;;;;;11.82;2.22;;;;;;;4.85;89.82;99749.69;5075649;28;20021;-77
2022/01/09 06:49:22;;;;;;;10.75;2.33;;;;;;;4.83;90.76;99751.50;5075747;28;20023;-73
2022/01/09 06:51:48;;;;;;;13.65;2.47;;;;;;;4.84;91.27;99753.22;5076895;28;20028;-77
2022/01/09 06:54:13;;;;;;;13.05;2.83;;;;;;;4.80;91.48;99759.50;5067368;28;20029;-78
2022/01/09 06:56:40;;;;;;;19.10;2.78;;;;;;;4.84;91.14;99762.84;5064152;28;20029;-76
2022/01/09 06:59:05;;;;;;;14.45;2.88;;;;;;;4.89;90.83;99767.00;5052492;28;20028;-76
2022/01/09 07:01:31;;;;;;;13.40;2.60;;;;;;;4.91;91.18;99752.06;5072632;28;20036;-77
2022/01/09 07:03:56;;;;;;;9.98;2.90;;;;;;;4.95;89.99;99772.91;5075704;28;20389;-76
2022/01/09 07:06:21;;;;;;;13.25;2.42;;;;;;;4.89;90.09;99774.03;5074760;28;20029;-75
2022/01/09 07:08:46;;;;;;;8.80;1.95;;;;;;;4.86;89.93;99774.13;5076942;28;20025;-77
2022/01/09 07:11:12;;;;;;;17.15;2.38;;;;;;;4.87;89.06;99778.47;5075323;28;20025;-76
2022/01/09 07:13:37;;;;;;;13.98;2.70;;;;;;;4.90;89.05;99776.59;5074941;28;20028;-77
2022/01/09 07:16:03;;;;;;;13.25;2.13;;;;;;;4.90;87.73;99776.59;5075922;28;20061;-76
2022/01/09 07:18:28;;;;;;;13.68;2.88;;;;;;;4.87;87.82;99787.22;5075841;28;20075;-77
2022/01/09 07:20:53;;;;;;;12.13;2.22;;;;;;;4.87;88.31;99788.97;5075600;28;20045;-77
2022/01/09 07:23:19;;;;;;;11.23;2.28;;;;;;;4.90;88.27;99807.22;5075351;28;20067;-75
2022/01/09 07:25:44;;;;;;;13.20;2.28;;;;;;;4.90;88.03;99797.56;5075582;28;20037;-77
2022/01/09 07:28:10;;;;;;;14.48;2.30;;;;;;;4.95;88.95;99801.78;5075806;28;20064;-74
2022/01/09 07:30:35;;;;;;;13.10;2.63;;;;;;;4.99;88.65;99806.88;5074731;28;20021;-76
2022/01/09 07:33:03;;;;;;;13.80;2.30;;;;;;;5.03;89.22;99810.22;5075455;28;20081;-76
2022/01/09 07:35:28;;;;;;;12.43;3.20;;;;;;;5.01;89.84;99814.66;5075224;28;20098;-77
2022/01/09 07:37:54;;;;;;;15.40;2.35;;;;;;;5.03;90.62;99825.97;5075928;28;20063;-77
2022/01/09 07:40:20;;;;;;;20.00;4.85;;;;;;;5.02;90.21;99826.88;5074981;28;20068;-77
2022/01/09 07:42:46;;;;;;;21.55;6.07;;;;;;;5.04;90.81;99828.53;5074440;28;20032;-77
2022/01/09 07:45:12;;;;;;;16.85;3.22;;;;;;;5.06;90.91;99825.84;5074836;28;20113;-74
2022/01/09 07:47:38;;;;;;;14.40;2.85;;;;;;;5.06;92.27;99833.72;5075989;28;20103;-76
2022/01/09 07:50:04;;;;;;;11.75;2.65;;;;;;;5.02;92.33;99826.88;5074980;28;20048;-74
2022/01/09 07:52:30;;;;;;;14.10;3.50;;;;;;;5.00;92.25;99828.69;5074858;28;20036;-77
2022/01/09 07:54:55;;;;;;;15.75;4.93;;;;;;;5.00;91.31;99836.56;5074560;28;20029;-75
2022/01/09 07:57:21;;;;;;;16.40;4.10;;;;;;;4.99;92.10;99840.97;5074447;28;20533;-76
2022/01/09 07:59:46;;;;;;;15.40;3.28;;;;;;;4.99;91.17;99840.97;5074382;28;20158;-74
2022/01/09 08:02:12;;;;;;;16.95;3.53;;;;;;;4.99;90.92;99840.97;5074442;28;20096;-73
2022/01/09 08:04:37;;;;;;;13.95;3.47;;;;;;;5.01;91.21;99854.91;5072958;28;20047;-77
2022/01/09 08:07:03;;;;;;;16.90;5.70;;;;;;;5.03;91.10;99852.22;5074208;28;20039;-76
2022/01/09 08:09:28;;;;;;;11.05;2.30;;;;;;;4.99;92.41;99864.59;5075740;28;20873;-76
2022/01/09 08:11:53;;;;;;;10.30;2.85;;;;;;;4.93;93.92;99867.44;5074308;28;20031;-77
2022/01/09 08:14:19;;;;;;;15.65;3.00;;;;;;;4.91;93.83;99878.00;5073301;28;20082;-73
2022/01/09 08:16:44;;;;;;;15.57;3.72;;;;;;;4.95;92.68;99877.88;5072882;28;20081;-76
2022/01/09 08:19:09;;;;;;;16.73;3.20;;;;;;;4.93;93.86;99878.78;5074937;28;20555;-72
2022/01/09 08:21:35;;;;;;;20.02;2.83;;;;;;;4.98;93.36;99875.16;5073674;28;20078;-76
2022/01/09 08:24:00;;;;;;;20.27;3.20;;;;;;;5.02;92.82;99868.88;5074486;28;20361;-74
2022/01/09 08:26:25;;;;;;;14.13;3.17;;;;;;;5.07;91.26;99878.25;5073892;28;20499;-76
2022/01/09 08:28:51;;;;;;;13.98;2.83;;;;;;;5.15;89.78;99887.63;5073754;28;20032;-73
2022/01/09 08:31:17;;;;;;;15.10;2.88;;;;;;;5.21;90.05;99896.13;5074035;28;20024;-76
2022/01/09 08:33:43;;;;;;;15.23;3.13;;;;;;;5.27;89.89;99900.28;5074080;28;20028;-74
2022/01/09 08:36:08;;;;;;;13.95;3.10;;;;;;;5.20;91.00;99914.56;5067162;28;20033;-77
2022/01/09 08:38:34;;;;;;;13.23;4.63;;;;;;;5.13;92.60;99906.06;5060396;28;20066;-75
2022/01/09 08:41:00;;;;;;;10.18;3.03;;;;;;;5.02;93.35;99909.06;5053473;28;20049;-77
2022/01/09 08:43:25;;;;;;;12.45;4.15;;;;;;;4.97;94.51;99910.16;5053691;28;20078;-77
2022/01/09 08:45:50;;;;;;;19.00;4.18;;;;;;;4.93;94.21;99910.25;5053537;28;20096;-78
2022/01/09 08:48:16;;;;;;;14.85;3.47;;;;;;;4.91;94.72;99913.84;5057887;28;20487;-77
2022/01/09 08:50:41;;;;;;;16.73;3.10;;;;;;;4.95;95.07;99917.22;5072895;28;20031;-78
2022/01/09 08:53:06;;;;;;;13.55;2.75;;;;;;;5.01;94.73;99917.00;5072997;28;20081;-79
2022/01/09 08:55:32;;;;;;;13.57;2.55;;;;;;;5.09;93.99;99928.94;5072452;28;20041;-79
2022/01/09 08:57:57;;;;;;;12.48;3.10;;;;;;;5.15;93.15;99929.63;5072791;28;20028;-80
2022/01/09 09:00:24;;;;;;;13.07;3.45;;;;;;;5.22;92.55;99945.09;5072192;28;20039;-77
2022/01/09 09:02:49;;;;;;;16.02;4.55;;;;;;;5.22;92.40;99939.84;5072876;28;20439;-80
2022/01/09 09:05:15;;;;;;;17.85;3.80;;;;;;;5.23;92.49;99943.31;5073158;28;20024;-79
2022/01/09 09:07:40;;;;;;;15.15;3.90;;;;;;;5.28;92.24;99938.75;5072048;28;20038;-78
2022/01/09 09:10:06;;;;;;;12.70;2.90;;;;;;;5.16;92.24;99939.22;5072867;28;20062;-80
2022/01/09 09:12:33;;;;;;;12.73;2.78;;;;;;;5.10;92.69;99948.16;5072805;28;20120;-79
2022/01/09 09:15:03;;;;;;;12.20;3.10;;;;;;;5.13;93.26;99955.06;5072486;28;20557;-81
2022/01/09 09:17:30;;;;;;;13.93;2.75;;;;;;;5.16;92.41;99947.94;5073171;28;20032;-81
2022/01/09 09:19:55;;;;;;;11.70;2.58;;;;;;;5.27;91.91;99962.41;5072919;28;20468;-82
2022/01/09 09:22:21;;;;;;;15.32;2.70;;;;;;;5.26;92.82;99958.94;5073492;28;20059;-82
2022/01/09 09:24:46;;;;;;;14.68;2.65;;;;;;;5.18;93.02;99960.97;5073021;28;20028;-81
2022/01/09 09:27:11;;;;;;;13.98;3.47;;;;;;;5.15;92.08;99972.44;5073649;28;20205;-78
2022/01/09 09:29:37;;;;;;;14.95;3.08;;;;;;;5.14;92.82;99983.00;5072475;28;20039;-82
2022/01/09 09:32:02;;;;;;;12.27;2.38;;;;;;;5.20;92.49;99988.88;5072551;28;20031;-81
2022/01/09 09:34:28;;;;;;;16.05;3.33;;;;;;;5.21;91.85;99992.38;5072660;28;20068;-81
2022/01/09 09:36:55;;;;;;;13.43;2.90;;;;;;;5.22;92.48;99992.31;5071326;28;20139;-81
2022/01/09 09:39:20;;;;;;;15.77;3.22;;;;;;;5.18;92.18;99997.72;5070097;28;20429;-80
2022/01/09 09:41:46;;;;;;;11.80;2.63;;;;;;;5.13;92.87;100005.78;5072210;28;20480;-79
2022/01/09 09:44:12;;;;;;;12.95;3.53;;;;;;;5.18;94.18;99998.59;5066864;28;20453;-78
2022/01/09 09:46:38;;;;;;;15.85;2.78;;;;;;;5.23;93.53;100004.53;5066827;28;20514;-80
2022/01/09 09:49:04;;;;;;;13.45;2.90;;;;;;;5.43;93.69;100002.94;5072813;28;20107;-80
2022/01/09 09:51:30;;;;;;;13.80;3.38;;;;;;;6.35;91.91;100010.84;5065993;28;20104;-80
2022/01/09 09:53:56;;;;;;;15.23;2.83;;;;;;;6.71;86.71;100019.00;5071413;28;20032;-80
2022/01/09 09:56:21;;;;;;;12.93;3.00;;;;;;;6.45;86.44;100030.59;5073073;28;20032;-80
2022/01/09 09:58:49;;;;;;;12.07;3.22;;;;;;;6.28;86.93;100020.75;5067770;28;20038;-80
2022/01/09 10:01:27;;;;;;;13.85;2.70;;;;;;;6.06;88.60;100029.50;5069630;28;20025;-79
2022/01/09 10:04:13;;;;;;;14.20;2.97;;;;;;;5.84;89.59;100033.84;5065070;28;20020;-79
2022/01/09 10:06:46;;;;;;;12.50;3.30;;;;;;;5.60;90.53;100036.47;5071617;28;20040;-78
2022/01/09 10:09:14;;;;;;;14.48;3.60;;;;;;;5.94;92.24;100027.31;5065765;28;20029;-77
2022/01/09 10:11:45;;;;;;;8.57;2.30;;;;;;;7.13;85.51;100025.09;5071027;28;20108;-78
2022/01/09 10:14:16;;;;;;;12.27;2.80;;;;;;;8.29;79.69;100027.72;5069276;28;20025;-76
2022/01/09 10:17:02;;;;;;;9.10;2.43;;;;;;;9.51;74.55;100028.66;5068486;28;20028;-72
2022/01/09 10:19:40;;;;;;;11.60;3.72;;;;;;;9.24;72.85;100037.09;5071895;28;20303;-73
2022/01/09 10:22:05;;;;;;;14.10;3.00;;;;;;;8.48;75.60;100040.91;5075206;28;20384;-72
2022/01/09 10:24:31;;;;;;;15.80;2.70;;;;;;;7.73;78.36;100037.38;5076080;28;20024;-75
2022/01/09 10:26:57;;;;;;;11.88;2.58;;;;;;;7.29;80.04;100038.47;5076115;28;20378;-74
2022/01/09 10:29:22;;;;;;;16.33;3.47;;;;;;;7.02;82.45;100048.41;5081483;28;20043;-74
2022/01/09 10:31:51;;;;;;;12.02;2.50;;;;;;;6.95;83.28;100044.34;5083593;28;20064;-75
2022/01/09 10:34:17;;;;;;;9.32;2.25;;;;;;;6.95;81.54;100046.97;5075673;28;20464;-75
2022/01/09 10:36:47;;;;;;;11.63;2.97;;;;;;;6.66;82.31;100051.66;5075300;28;20119;-73
2022/01/09 10:39:26;;;;;;;14.43;3.03;;;;;;;6.60;83.02;100052.78;5077493;28;20114;-74
2022/01/09 10:41:56;;;;;;;10.65;3.20;;;;;;;6.54;83.82;100056.50;5095339;28;20476;-77
2022/01/09 10:44:31;;;;;;;16.17;3.22;;;;;;;6.60;83.87;100049.28;5096001;28;20036;-77
2022/01/09 10:46:59;;;;;;;15.45;3.78;;;;;;;6.60;83.80;100049.28;5094434;28;20390;-75
2022/01/09 10:49:37;;;;;;;17.88;2.95;;;;;;;6.37;84.52;100049.31;5075626;28;20029;-74
2022/01/09 10:52:25;;;;;;;16.90;3.08;;;;;;;6.27;85.07;100053.22;5073973;28;20435;-74
2022/01/09 10:54:51;;;;;;;17.17;4.38;;;;;;;6.30;86.10;100054.88;5070180;28;20024;-73
2022/01/09 10:57:40;;;;;;;15.60;3.00;;;;;;;6.28;86.59;100054.94;5056166;28;20028;-76
2022/01/09 11:00:09;;;;;;;19.80;4.50;;;;;;;6.39;86.05;100060.63;5055789;28;20025;-75
2022/01/09 11:02:34;;;;;;;18.60;4.13;;;;;;;6.37;86.53;100056.34;5055693;28;20060;-74
2022/01/09 11:05:00;;;;;;;18.58;4.25;;;;;;;6.51;85.50;100064.53;5058893;28;20048;-74
2022/01/09 11:07:26;;;;;;;15.32;3.33;;;;;;;6.54;85.78;100063.56;5074729;28;20024;-72
2022/01/09 11:09:52;;;;;;;14.98;3.65;;;;;;;6.60;85.85;100068.56;5075463;28;20041;-72
2022/01/09 11:12:20;;;;;;;26.02;3.72;;;;;;;6.60;84.85;100076.47;5091740;28;20035;-73
2022/01/09 11:14:48;;;;;;;15.30;3.13;;;;;;;6.55;84.95;100067.91;5087174;28;20484;-74
2022/01/09 11:17:20;;;;;;;17.48;4.03;;;;;;;6.54;85.79;100071.44;5078863;28;20373;-74
2022/01/09 11:19:45;;;;;;;13.43;3.38;;;;;;;6.57;84.68;100079.19;5074759;28;20075;-74
2022/01/09 11:22:11;;;;;;;15.60;4.57;;;;;;;6.49;83.91;100079.50;5074851;28;20468;-71
2022/01/09 11:25:11;;;;;;;22.30;3.88;;;;;;;6.50;84.38;100075.13;5075467;28;20499;-79
2022/01/09 11:28:06;;;;;;;16.60;3.58;;;;;;;6.59;84.98;100076.53;5075633;28;20025;-73